Weather observations for the past three days for
Batavia Clermont County Airport
Metric (Imperial)
Date Time (edt) Wind (kph) Vis. (km) Weather Sky Cond. Temperature (ºC) Relative Humidity Wind Chill (°C) Heat Index (°C) Pressure Precipitation (cm)
Air Dwpt 6 hour altimeter (cm) sea level (mb) 1 hr 3 hr 6 hr
Max. Min.
02 10:16 SW 7 16.09 Fair CLR 29.4 21.9 64% 32 76.5 0.0
02 09:56 W 15 16.09 Fair CLR 29 21.9 66% 32 76.5 0.0
02 09:36 SW 7 16.09 Fair CLR 28.2 21.7 68% 31 76.5 0.0
02 09:16 SW 9 16.09 Fair CLR 27.7 21.8 70% 30 76.5 0.0
02 08:56 SW 9 16.09 Fair CLR 27 21.8 73% 29 76.48 0.0
02 08:36 SW 7 16.09 Fair CLR 26 22 79% 28 76.48 0.0
02 07:56 Calm 16.09 Fair CLR 0 0 0% 0 0.0
02 07:36 Calm 16.09 Fair CLR 0 0 0% 0 0.0
02 07:16 Calm 16.09 Fair CLR 21.6 21.5 99% 76.43 0.0
02 06:56 Calm 16.09 Fair CLR 21.7 21.4 98% 76.43 0.0
02 06:36 Calm 16.09 Fair CLR 21.8 21.3 97% 76.43 0.0
02 06:16 Calm 16.09 Fair CLR 21.6 21.5 99% 76.43 0.0
02 05:56 Calm 16.09 Fair CLR 21.7 21.4 98% 76.43 0.0
02 05:36 Calm 16.09 Fair CLR 22.8 21.5 92% 76.43 0.0
02 05:16 Calm 16.09 Fair CLR 22.5 21.6 95% 76.43 0.0
02 04:56 Calm 16.09 Fair CLR 22 21.6 98% 76.4 0.0
02 04:36 Calm 16.09 Fair CLR 22 21.7 98% 76.4 0.0
02 04:16 Calm 16.09 Fair CLR 22.2 21.8 98% 76.38 0.0
02 03:56 Calm 16.09 Fair CLR 22.5 22 97% 76.38 0.0
02 03:36 Calm 16.09 Fair CLR 23.5 21.8 90% 76.38 0.0
02 03:16 Calm 16.09 Fair CLR 22.6 22 96% 76.35 0.0
02 02:56 Calm 16.09 Fair CLR 23.9 21.1 84% 24 76.35 0.0
02 02:16 SW 6 16.09 Fair CLR 25.3 21 77% 26 76.35 0.0
02 01:56 Calm 16.09 Fair CLR 25.8 21 31 25.8 75% 27 76.38 0.0
02 01:36 SW 6 16.09 Fair CLR 26.2 20.9 73% 28 76.38 0.0
02 01:16 SW 7 16.09 Fair CLR 26.6 20.8 71% 28 76.38 0.0
02 00:56 SW 6 16.09 Fair CLR 26.9 20.7 69% 29 76.38 0.0
02 00:36 SW 7 16.09 Fair CLR 26.8 20.7 69% 28 76.35 0.0
02 00:16 SW 7 16.09 Fair CLR 27 20.6 68% 29 76.38 0.0
01 23:56 SW 6 16.09 Fair CLR 27.3 20.5 66% 29 76.38 0.0
01 23:36 Calm 16.09 Fair CLR 27.5 20.5 66% 29 76.38 0.0
01 23:16 Calm 16.09 Fair CLR 27.5 20.7 67% 29 76.38 0.0
01 22:56 Calm 16.09 Fair CLR 27.4 21 68% 29 76.38 0.0
01 22:36 Calm 16.09 Fair CLR 27.8 21 67% 30 76.38 0.0
01 22:16 Calm 16.09 Fair CLR 27.9 21.2 67% 30 76.38 0.0
01 21:56 Calm 0.00 NULL NULL 0 0 0% 76.38 0.0
01 21:36 Calm 16.09 Fair CLR 0 0 0% 0 0.0
01 21:16 SW 7 16.09 Fair CLR 29.3 20.8 60% 32 76.35 0.0
01 20:56 SW 6 16.09 Fair CLR 29.5 20.8 60% 32 76.33 0.0
01 20:36 SW 7 16.09 Fair CLR 30 21 59% 33 76.33 0.0
01 20:16 SW 6 16.09 Fair CLR 30.5 21.1 57% 33 76.35 0.0
01 19:56 SW 7 16.09 Fair CLR 31.1 21.2 34.5 31.1 56% 34 76.35 0.0
01 19:36 SW 6 16.09 Fair CLR 32 21 52% 35 76.35 0.0
01 19:16 SW 6 16.09 Fair CLR 32.5 21 51% 35 76.35 0.0
01 18:56 SW 6 16.09 Fair CLR 33 20.6 48% 36 76.35 0.0
01 18:36 SW 9 16.09 Fair CLR 33.5 20.4 46% 36 76.35 0.0
01 18:16 SW 9 16.09 Fair CLR 33.7 20.1 45% 36 76.35 0.0
01 17:56 S 9 16.09 Fair CLR 34 20.1 44% 37 76.35 0.0
01 17:36 SW 9 16.09 Fair CLR 34 20.1 44% 37 76.35 0.0
01 17:16 SW 11 16.09 Fair CLR 34.4 20.8 45% 38 76.35 0.0
01 16:56 S 13 16.09 Fair CLR 34.2 20.9 46% 37 76.35 0.0
01 16:36 SW 15 16.09 Partly Cloudy SCT050 34.2 21.3 47% 38 76.35 0.0
01 16:16 SW 9 16.09 Partly Cloudy SCT050 34 21.3 47% 38 76.35 0.0
01 15:56 SW 13 16.09 Partly Cloudy SCT050 33.9 21.4 48% 38 76.38 0.0
01 15:36 SW 13 16.09 Partly Cloudy SCT050 34.1 21.8 49% 38 76.38 0.0
01 15:16 SW 9 16.09 Partly Cloudy SCT050 33.6 21.1 48% 37 76.4 0.0
01 14:56 W 17 16.09 Partly Cloudy SCT050 34.3 21.7 48% 38 76.43 0.0
01 14:36 W 15 16.09 Partly Cloudy SCT050 34 21 47% 37 76.43 0.0
01 14:16 SW 13 16.09 Fair CLR 33.9 20.8 46% 37 76.43 0.0
01 13:56 SW 15 16.09 Fair CLR 33.6 21 33.6 24.3 48% 37 76.45 0.0
01 13:36 SW 17 16.09 Fair CLR 33.3 20.7 48% 36 76.45 0.0
01 13:16 W 13 16.09 Fair CLR 33.1 20.7 48% 36 76.48 0.0
01 12:56 NW 13 16.09 Fair CLR 32.4 21.1 51% 35 76.48 0.0
01 12:36 W 9 16.09 Fair CLR 32.5 21.3 52% 36 76.48 0.0
01 12:16 W 11 16.09 Fair CLR 31.9 21.6 54% 35 76.5 0.0
01 11:56 W 13 16.09 Fair CLR 31.4 21.9 57% 35 76.5 0.0
01 11:36 W 15 16.09 Fair CLR 30.5 22.2 61% 34 76.5 0.0
01 11:16 W 13 16.09 Fair CLR 29.9 22.1 63% 33 76.5 0.0
01 10:36 W 11 16.09 Fair CLR 28.9 21.9 66% 32 76.53 0.0
01 10:16 W 9 16.09 Fair CLR 28.5 21.9 68% 31 76.53 0.0
01 09:56 W 9 16.09 Fair CLR 28 21.8 69% 31 76.53 0.0
01 09:36 W 13 16.09 Fair CLR 27.2 21.5 71% 29 76.5 0.0
01 09:16 SW 9 16.09 Fair CLR 26.5 21.4 74% 28 76.5 0.0
01 08:56 SW 7 16.09 Fair CLR 25.6 21.4 78% 27 76.53 0.0
01 08:36 SW 11 16.09 Fair CLR 25 21.6 81% 26 76.53 0.0
01 08:16 SW 9 16.09 NULL NULL 24.4 21.5 84% 25 76.53 0.0
01 07:56 SW 7 16.09 Fair CLR 0 0 0% 0 0.0
01 07:36 SW 9 16.09 Fair CLR 0 0 0% 76.48 0.0
01 07:16 Calm 0.00 NULL NULL 21.2 21.1 99% 0 0.0
01 06:56 Calm 8.05 Fair CLR 0 0 0% 76.45 0.0
01 06:36 Calm 16.09 Fair CLR 21.4 20.9 97% 76.45 0.0
01 06:16 Calm 16.09 Fair CLR 21.2 21.2 100% 76.43 0.0
01 05:56 Calm 16.09 Fair CLR 21.7 21 96% 76.43 0.0
01 05:36 Calm 16.09 Fair CLR 21.5 21.3 99% 76.43 0.0
01 05:16 Calm 16.09 Fair CLR 21.6 21.5 99% 76.43 0.0
01 04:56 Calm 16.09 Fair CLR 21.7 21.3 98% 76.4 0.0
01 04:36 Calm 16.09 Fair CLR 22.8 21.5 92% 76.4 0.0
01 04:16 Calm 16.09 Fair CLR 22.5 21.7 95% 76.4 0.0
01 03:56 Calm 16.09 Fair CLR 22.7 21.6 94% 76.38 0.0
01 03:16 Calm 16.09 Fair CLR 24.6 21 80% 25 76.35 0.0
01 02:56 SW 6 16.09 Fair CLR 25.1 21 78% 26 76.35 0.0
01 02:36 SW 9 16.09 Fair CLR 25.3 21 77% 26 76.35 0.0
01 02:16 SW 9 16.09 Fair CLR 25.6 21.1 76% 27 76.35 0.0
01 01:56 SW 13 16.09 Fair CLR 26 21.1 30.2 23.8 74% 27 76.38 0.0
01 01:36 SW 9 16.09 Fair CLR 26.1 21.1 74% 28 76.4 0.0
01 01:16 SW 9 16.09 Fair CLR 26.1 21.1 74% 28 76.4 0.0
01 00:56 Calm 16.09 Fair CLR 25.3 21.4 79% 26 76.43 0.0
01 00:36 Calm 16.09 Fair CLR 25.6 21.4 78% 27 76.43 0.0
01 00:16 S 6 16.09 Fair CLR 25.2 21.9 82% 26 76.43 0.0
31 23:56 Calm 16.09 Fair CLR 24 22.8 93% 23 76.43 0.0
31 23:36 Calm 16.09 Fair CLR 24.6 22.6 89% 25 76.43 0.0
31 23:16 Calm 16.09 Fair CLR 24.5 22.6 89% 25 76.45 0.0
31 22:56 Calm 16.09 Fair CLR 25.4 22.4 84% 27 76.45 0.0
31 22:36 Calm 16.09 Fair CLR 25.7 22.2 81% 27 76.45 0.0
31 22:16 Calm 16.09 Fair CLR 25.2 22.3 84% 26 76.45 0.0
31 21:56 Calm 0.00 NULL NULL 26 22 79% 28 76.45 0.0
31 21:16 Calm 16.09 Fair CLR 26.5 22.1 77% 28 76.43 0.0
31 20:56 Calm 16.09 Fair CLR 27.7 21.6 69% 30 76.4 0.0
31 20:36 Calm 16.09 Fair CLR 29.1 21.2 62% 32 76.38 0.0
31 20:16 Calm 16.09 Fair CLR 29.6 21.2 61% 32 76.38 0.0
31 19:36 SW 11 16.09 Fair CLR 30.7 21.1 57% 33 76.33 0.0
31 19:16 SW 11 16.09 Fair CLR 31.3 20.9 54% 34 76.33 0.0
31 18:56 SW 13 16.09 Fair CLR 31.9 20.7 52% 35 76.33 0.0
31 18:36 SW 11 16.09 Fair CLR 32.3 20.6 50% 35 76.35 0.0
31 18:16 SW 13 16.09 Fair CLR 32.5 20.5 49% 35 76.35 0.0
31 17:56 SW 13 16.09 Partly Cloudy SCT055 32.6 20.2 48% 35 76.38 0.0
31 17:36 W 13 16.09 Mostly Cloudy BKN055 BKN075 33 19.8 46% 35 76.38 0.0
31 17:16 NW 9 16.09 Mostly Cloudy BKN055 BKN075 33 19.8 46% 35 76.38 0.0
31 16:56 W 9 16.09 Mostly Cloudy BKN055 BKN075 32.8 19.5 45% 35 76.4 0.0
31 16:36 W 9 G 26 16.09 Mostly Cloudy BKN055 BKN075 33.5 20.1 45% 36 76.43 0.0
31 16:16 W 9 16.09 Mostly Cloudy SCT055 BKN075 33.2 19.8 45% 35 76.43 0.0
31 15:56 W 11 16.09 Partly Cloudy SCT055 SCT070 33.1 20.5 48% 36 76.45 0.0
31 15:36 W 11 16.09 Mostly Cloudy SCT055 SCT070 BKN090 33.5 20.9 48% 37 76.48 0.0
31 15:16 W 13 16.09 Partly Cloudy SCT090 32.8 20.1 47% 35 76.48 0.0
31 14:56 W 19 16.09 Fair CLR 33.3 20.1 46% 36 76.5 0.0
31 14:36 W 19 G 26 16.09 Fair CLR 32.9 20.3 47% 35 76.5 0.0
31 14:16 W 17 G 30 16.09 Partly Cloudy SCT060 SCT075 SCT090 32.3 20.3 49% 35 76.5 0.0
31 13:56 W 17 16.09 Mostly Cloudy SCT045 SCT055 BKN065 31 21 55% 34 76.53 0.0
31 13:36 NW 7 16.09 Mostly Cloudy SCT042 BKN048 BKN050 32.3 22.5 56% 37 76.53 0.0
31 13:16 W 9 16.09 Mostly Cloudy SCT040 BKN050 32 22.8 58% 37 76.56 0.0
31 12:56 SW 9 16.09 Partly Cloudy SCT060 31.7 22.1 57% 35 76.56 0.0
31 12:36 SW 17 16.09 Partly Cloudy SCT036 31.5 22.6 59% 36 76.56 0.0
31 12:16 W 13 16.09 Fair CLR 30.7 22.2 61% 34 76.58 0.0
31 11:56 W 13 16.09 Fair CLR 30.6 22.4 62% 34 76.56 0.0
31 11:36 W 13 16.09 Fair CLR 30.2 22 62% 34 76.56 0.0
31 11:16 W 11 16.09 Fair CLR 29.2 21.8 64% 32 76.56 0.0
31 10:36 W 11 16.09 Fair CLR 27.5 21.3 69% 30 76.56 0.0
31 10:16 SW 11 16.09 Fair CLR 27.3 21.4 70% 29 76.56 0.0
31 09:56 W 13 16.09 Fair CLR 26.9 21.1 71% 29 76.56 0.0
31 09:36 SW 11 16.09 Fair CLR 27.2 21.2 70% 29 76.56 0.0
31 08:36 SW 7 16.09 Fair CLR 0 0 0% 0 0.0
31 08:16 Calm 16.09 Fair CLR 23.5 20.8 85% 0 0.0
31 07:56 Calm 16.09 Fair CLR 22.4 21 92% 76.5 0.0
31 07:36 Calm 16.09 Fair CLR 22.1 20.9 93% 76.5 0.0
31 07:16 Calm 16.09 Fair CLR 22.2 20.7 91% 76.5 0.0
31 06:56 Calm 16.09 Fair CLR 0 0 0% 0 0.0
31 06:36 Calm 16.09 Fair CLR 21.7 20.8 95% 76.45 0.0
31 06:16 Calm 16.09 Fair CLR 21.8 20.8 94% 76.45 0.0
31 05:56 Calm 16.09 Fair CLR 22.1 20.6 91% 76.45 0.0
31 05:36 Calm 16.09 Fair CLR 22 20.6 92% 76.45 0.0
31 05:16 Calm 16.09 Fair CLR 0 0 0% 76.45 0.0
31 04:56 Calm 16.09 NULL NULL 0 0 0% 76.45 0.0
31 04:36 Calm 0.00 NULL NULL 0 0 0% 0 0.0
31 02:16 Calm 0.00 NULL NULL 21.4 20.7 96% 0 0.0
31 01:16 Calm 0.00 NULL NULL 22 19.9 88% 0 0.0
30 23:16 Calm 16.09 Fair CLR 0 0 0% 0 0.0
30 22:56 Calm 16.09 Fair CLR 0 0 0% 0 0.0
30 22:36 Calm 16.09 Fair CLR 24 21.1 84% 24 76.48 0.0
30 22:16 Calm 16.09 Fair CLR 23.5 20.7 84% 76.48 0.0
30 21:56 Calm 16.09 Fair CLR 24.3 20.5 79% 25 76.48 0.0
30 21:36 Calm 16.09 Fair CLR 24.4 20.3 78% 25 76.48 0.0
30 21:16 Calm 16.09 Fair CLR 24 20.2 79% 24 76.45 0.0
30 20:56 S 6 16.09 Fair CLR 24.7 20.5 78% 25 76.43 0.0
30 20:36 Calm 16.09 Fair CLR 26.4 19.9 68% 28 76.43 0.0
30 20:16 Calm 16.09 Fair CLR 27.6 19.6 62% 29 76.43 0.0
30 19:56 Calm 16.09 Fair CLR 28.6 18.6 31.9 28.6 55% 30 76.43 0.0
30 19:36 Calm 16.09 Fair CLR 29.1 18.4 52% 30 76.4 0.0
30 19:16 SW 6 16.09 Fair CLR 29.6 18.3 51% 31 76.38 0.0
30 18:56 SW 7 16.09 Fair CLR 30.1 17.8 48% 31 76.38 0.0
30 18:36 SW 6 16.09 Fair CLR 30.3 17.9 47% 31 76.38 0.0
30 18:16 SW 11 16.09 Fair CLR 30.6 17.6 46% 31 76.38 0.0
30 17:56 SW 9 16.09 Fair CLR 31.1 17.7 45% 32 76.38 0.0
30 17:36 SW 11 16.09 Fair CLR 30.7 17.2 44% 31 76.38 0.0
30 17:16 SW 15 16.09 Fair CLR 31.8 17.1 41% 32 76.4 0.0
30 16:56 SW 6 16.09 Fair CLR 30.8 17.2 44% 31 76.43 0.0
30 16:36 W 6 16.09 Fair CLR 31.2 17.7 44% 32 76.43 0.0
30 16:16 Calm 16.09 Fair CLR 31.5 17.2 42% 32 76.45 0.0
30 15:56 NW 7 16.09 Partly Cloudy SCT060 30.9 17.2 44% 31 76.48 0.0
30 15:36 NW 11 16.09 Mostly Cloudy BKN060 BKN070 31 18 46% 32 76.5 0.0
30 15:16 W 13 16.09 Mostly Cloudy SCT060 BKN070 30.9 17.5 45% 31 76.53 0.0
30 14:56 NW 9 16.09 Partly Cloudy SCT060 31.2 17.4 44% 32 76.56 0.0
30 14:36 W 13 16.09 Mostly Cloudy SCT060 BKN075 31.2 17.7 44% 32 76.56 0.0
30 14:16 W 17 16.09 Mostly Cloudy SCT060 BKN075 31.7 18 44% 33 76.58 0.0
30 13:56 SW 13 16.09 Mostly Cloudy SCT060 BKN075 31.4 17 32.4 19.5 42% 32 76.61 0.0
30 13:36 W 20 16.09 Partly Cloudy SCT050 31.6 18 44% 32 76.61 0.0
30 13:16 W 13 16.09 Partly Cloudy SCT048 SCT060 31.4 19.4 49% 33 76.63 0.0
30 12:56 W 17 16.09 Fair CLR 30.5 19.3 51% 32 76.63 0.0
30 12:36 W 11 16.09 Fair CLR 30.6 20.6 55% 33 76.63 0.0
30 12:16 W 13 16.09 Fair CLR 30.2 20.1 55% 32 76.63 0.0
30 11:56 SW 7 16.09 Fair CLR 29.5 20.4 58% 32 76.63 0.0
30 11:36 Calm 16.09 Fair CLR 28.5 20.6 62% 31 76.63 0.0
30 11:16 Calm 16.09 Fair CLR 27.8 20.2 63% 30 76.63 0.0
30 10:56 W 9 16.09 Fair CLR 27.5 20.2 64% 29 76.61 0.0
30 10:36 SW 6 16.09 Fair CLR 27.1 20.4 67% 29 76.61 0.0
Date Time (edt) Wind (kph) Vis. (km) Weather Sky Cond. Air Dwpt Max. Min. Relative Humidity Wind Chill (°C) Heat Index (°C) altimeter (cm) sea level (mb) 1 hr 3 hr 6 hr
6 hour
Temperature (ºC) Pressure Precipitation (cm)